createdAt,value
2022-07-25T00:02:07.344Z,4.30
2022-07-25T00:07:10.498Z,4.10
2022-07-25T00:12:12.111Z,4.10
2022-07-25T00:17:14.089Z,4.40
2022-07-25T00:22:15.751Z,3.92
2022-07-25T00:27:17.481Z,4.28
2022-07-25T00:32:19.204Z,3.92
2022-07-25T00:37:20.816Z,3.83
2022-07-25T00:42:24.048Z,4.30
2022-07-25T00:47:26.163Z,3.70
2022-07-25T00:52:27.937Z,4.00
2022-07-25T00:57:29.677Z,3.83
2022-07-25T01:02:31.374Z,3.88
2022-07-25T01:07:33.563Z,4.15
2022-07-25T01:12:48.495Z,4.05
2022-07-25T01:17:50.711Z,4.20
2022-07-25T01:22:53.401Z,4.07
2022-07-25T01:27:56.140Z,4.10
2022-07-25T01:32:57.938Z,3.60
2022-07-25T01:37:59.578Z,3.85
2022-07-25T01:43:01.318Z,3.88
2022-07-25T01:48:02.997Z,4.13
2022-07-25T01:53:04.706Z,3.92
2022-07-25T01:58:06.390Z,4.15
2022-07-25T02:03:28.246Z,3.88
2022-07-25T02:08:31.020Z,3.80
2022-07-25T02:13:32.638Z,3.90
2022-07-25T02:18:34.371Z,4.32
2022-07-25T02:23:36.366Z,3.95
2022-07-25T02:28:38.054Z,3.78
2022-07-25T02:33:39.672Z,3.83
2022-07-25T02:38:41.344Z,4.07
2022-07-25T02:43:42.959Z,3.53
2022-07-25T02:48:44.679Z,3.35
2022-07-25T02:53:57.113Z,3.80
2022-07-25T02:58:59.528Z,3.78
2022-07-25T03:04:01.221Z,3.50
2022-07-25T03:09:02.933Z,3.55
2022-07-25T03:14:04.982Z,3.90
2022-07-25T03:19:10.306Z,3.97
2022-07-25T03:24:12.276Z,3.80
2022-07-25T03:29:13.906Z,3.90
2022-07-25T03:34:15.526Z,3.92
2022-07-25T03:39:17.268Z,3.72
2022-07-25T03:44:20.119Z,3.83
2022-07-25T03:49:21.732Z,3.55
2022-07-25T03:54:23.458Z,3.50
2022-07-25T03:59:26.465Z,4.13
2022-07-25T04:04:28.081Z,3.72
2022-07-25T04:09:33.434Z,3.72
2022-07-25T04:14:35.495Z,3.67
2022-07-25T04:19:37.149Z,3.97
2022-07-25T04:24:38.855Z,3.88
2022-07-25T04:29:40.453Z,3.70
2022-07-25T04:34:43.631Z,3.92
2022-07-25T04:39:45.389Z,3.97
2022-07-25T04:44:47.083Z,3.95
2022-07-25T04:49:48.722Z,4.28
2022-07-25T04:54:50.348Z,4.20
2022-07-25T04:59:52.054Z,3.88
2022-07-25T05:04:53.759Z,3.90
2022-07-25T05:09:55.473Z,4.05
2022-07-25T05:14:57.209Z,4.05
2022-07-25T05:19:59.150Z,3.90
2022-07-25T05:25:02.353Z,3.90
2022-07-25T05:30:05.775Z,3.95
2022-07-25T05:35:09.230Z,4.00
2022-07-25T05:40:11.071Z,4.10
2022-07-25T05:45:12.734Z,3.90
2022-07-25T05:50:14.331Z,4.10
2022-07-25T05:55:16.993Z,4.13
2022-07-25T06:00:18.783Z,3.90
2022-07-25T06:05:20.767Z,4.15
2022-07-25T06:10:22.695Z,3.85
2022-07-25T06:15:26.980Z,4.25
2022-07-25T06:20:29.185Z,4.30
2022-07-25T06:25:30.940Z,3.92
2022-07-25T06:30:33.358Z,4.10
2022-07-25T06:35:35.307Z,4.15
2022-07-25T06:40:36.929Z,4.20
2022-07-25T06:45:38.618Z,4.25
2022-07-25T06:50:40.525Z,4.47
2022-07-25T06:55:42.217Z,5.32
2022-07-25T07:00:43.979Z,4.47
2022-07-25T07:05:45.651Z,4.72
2022-07-25T07:10:47.306Z,4.72
2022-07-25T07:15:50.569Z,4.55
2022-07-25T07:20:52.734Z,5.07
2022-07-25T07:25:54.560Z,5.18
2022-07-25T07:31:15.806Z,4.80
2022-07-25T07:36:18.242Z,4.80
2022-07-25T07:41:20.396Z,5.20
2022-07-25T07:46:22.114Z,4.60
2022-07-25T07:51:23.804Z,4.63
2022-07-25T07:56:25.562Z,4.82
2022-07-25T08:01:27.404Z,4.93
2022-07-25T08:06:29.268Z,4.60
2022-07-25T08:11:31.032Z,4.55
2022-07-25T08:16:33.473Z,4.78
2022-07-25T08:21:35.227Z,5.63
2022-07-25T08:26:37.183Z,5.75
2022-07-25T08:31:39.050Z,5.40
2022-07-25T08:36:40.846Z,5.07
2022-07-25T08:41:42.969Z,5.13
2022-07-25T08:46:45.984Z,4.93
2022-07-25T08:51:48.028Z,5.00
2022-07-25T08:56:53.605Z,5.72
2022-07-25T09:01:55.306Z,5.10
2022-07-25T09:06:57.223Z,5.35
2022-07-25T09:11:59.033Z,5.25
2022-07-25T09:17:07.117Z,5.50
2022-07-25T09:22:24.430Z,4.97
2022-07-25T09:27:26.423Z,5.05
2022-07-25T09:32:29.159Z,5.10
2022-07-25T09:37:30.868Z,4.68
2022-07-25T09:42:33.423Z,4.95
2022-07-25T09:47:37.411Z,5.30
2022-07-25T09:52:39.609Z,4.80
2022-07-25T09:57:41.459Z,5.05
2022-07-25T10:02:55.432Z,5.10
2022-07-25T10:07:57.957Z,4.95
2022-07-25T10:13:11.434Z,5.30
2022-07-25T10:18:14.790Z,5.15
2022-07-25T10:23:25.644Z,4.93
2022-07-25T10:28:40.639Z,4.68
2022-07-25T10:33:42.856Z,5.03
2022-07-25T10:38:48.447Z,4.75
2022-07-25T10:43:50.795Z,5.00
2022-07-25T10:49:01.129Z,5.45
2022-07-25T10:54:14.031Z,4.40
2022-07-25T10:59:35.448Z,4.55
2022-07-25T11:04:37.631Z,4.82
2022-07-25T11:09:40.965Z,4.93
2022-07-25T11:14:43.556Z,5.18
2022-07-25T11:19:54.724Z,5.05
2022-07-25T11:24:57.665Z,4.78
2022-07-25T11:30:11.533Z,5.03
2022-07-25T11:35:15.346Z,5.32
2022-07-25T11:40:18.468Z,5.30
2022-07-25T11:45:24.279Z,5.30
2022-07-25T11:50:30.206Z,4.90
2022-07-25T11:55:36.296Z,5.10
2022-07-25T12:00:43.402Z,5.45
2022-07-25T12:05:45.467Z,4.97
2022-07-25T12:10:49.091Z,5.20
2022-07-25T12:15:50.992Z,5.10
2022-07-25T12:20:53.264Z,4.90
2022-07-25T12:25:55.075Z,5.45
2022-07-25T12:30:57.097Z,4.53
2022-07-25T12:36:04.030Z,5.32
2022-07-25T12:41:08.308Z,5.30
2022-07-25T12:46:10.188Z,4.50
2022-07-25T12:51:12.090Z,5.32
2022-07-25T12:56:15.572Z,5.38
2022-07-25T13:01:17.406Z,4.68
2022-07-25T13:06:20.711Z,5.03
2022-07-25T13:11:22.477Z,5.10
2022-07-25T13:16:24.151Z,5.03
2022-07-25T13:21:26.209Z,5.32
2022-07-25T13:26:28.100Z,5.30
2022-07-25T13:31:29.915Z,5.55
2022-07-25T13:36:33.374Z,4.95
2022-07-25T13:41:35.061Z,5.55
2022-07-25T13:46:36.744Z,5.53
2022-07-25T13:51:38.624Z,5.72
2022-07-25T13:56:41.447Z,4.95
2022-07-25T14:01:44.345Z,4.72
2022-07-25T14:06:51.863Z,5.00
2022-07-25T14:11:53.714Z,4.80
2022-07-25T14:16:56.329Z,4.30
2022-07-25T14:21:58.303Z,4.85
2022-07-25T14:27:00.518Z,4.78
2022-07-25T14:32:02.443Z,5.40
2022-07-25T14:37:05.673Z,5.50
2022-07-25T14:42:09.277Z,5.93
2022-07-25T14:47:12.786Z,5.82
2022-07-25T14:52:15.632Z,5.43
2022-07-25T14:57:17.545Z,6.38
2022-07-25T15:02:19.522Z,6.50
2022-07-25T15:07:21.210Z,6.18
2022-07-25T15:12:22.920Z,6.30
2022-07-25T15:17:24.752Z,6.22
2022-07-25T15:22:26.464Z,6.00
2022-07-25T15:27:28.146Z,5.20
2022-07-25T15:32:29.830Z,5.25
2022-07-25T15:37:32.002Z,4.40
2022-07-25T15:42:34.517Z,4.80
2022-07-25T15:47:36.228Z,4.22
2022-07-25T15:52:37.947Z,3.10
2022-07-25T15:57:39.688Z,3.70
2022-07-25T16:02:41.514Z,2.78
2022-07-25T16:07:43.539Z,3.20
2022-07-25T16:12:45.288Z,3.03
2022-07-25T16:17:47.822Z,2.67
2022-07-25T16:22:55.780Z,2.70
2022-07-25T16:27:58.335Z,2.33
2022-07-25T16:33:00.091Z,2.28
2022-07-25T16:38:01.816Z,2.03
2022-07-25T16:43:03.510Z,2.13
2022-07-25T16:48:08.665Z,1.50
2022-07-25T16:53:10.414Z,1.60
2022-07-25T16:58:12.192Z,1.80
2022-07-25T17:03:16.113Z,3.63
2022-07-25T17:08:18.173Z,1.80
2022-07-25T17:13:20.156Z,1.70
2022-07-25T17:18:21.780Z,1.80
2022-07-25T17:23:23.864Z,2.10
2022-07-25T17:28:25.943Z,2.00
2022-07-25T17:33:28.017Z,1.90
2022-07-25T17:38:34.701Z,2.53
2022-07-25T17:43:36.925Z,2.35
2022-07-25T17:48:39.074Z,2.17
2022-07-25T17:53:40.917Z,2.58
2022-07-25T17:58:42.553Z,2.38
2022-07-25T18:03:47.408Z,2.33
2022-07-25T18:08:49.229Z,3.08
2022-07-25T18:13:51.004Z,2.08
2022-07-25T18:18:52.755Z,2.20
2022-07-25T18:23:54.374Z,1.83
2022-07-25T18:28:56.208Z,2.10
2022-07-25T18:33:57.964Z,2.20
2022-07-25T18:38:59.633Z,2.17
2022-07-25T18:44:01.820Z,2.20
2022-07-25T18:49:03.860Z,2.33
2022-07-25T18:54:06.019Z,2.50
2022-07-25T18:59:08.362Z,2.72
2022-07-25T19:04:11.504Z,2.70
2022-07-25T19:09:13.422Z,2.83
2022-07-25T19:14:15.237Z,2.97
2022-07-25T19:19:17.060Z,2.90
2022-07-25T19:24:18.932Z,2.72
2022-07-25T19:29:20.885Z,2.90
2022-07-25T19:34:23.647Z,2.63
2022-07-25T19:39:25.381Z,2.83
2022-07-25T19:44:27.030Z,2.42
2022-07-25T19:49:28.684Z,2.97
2022-07-25T19:54:30.375Z,4.10
2022-07-25T19:59:32.180Z,2.33
2022-07-25T20:04:33.798Z,2.58
2022-07-25T20:09:35.453Z,2.65
2022-07-25T20:14:37.139Z,2.60
2022-07-25T20:19:38.769Z,3.08
2022-07-25T20:24:40.627Z,2.60
2022-07-25T20:29:42.341Z,2.58
2022-07-25T20:34:45.135Z,2.35
2022-07-25T20:39:46.797Z,2.67
2022-07-25T20:44:50.102Z,2.30
2022-07-25T20:49:51.786Z,2.63
2022-07-25T20:54:53.750Z,2.20
2022-07-25T20:59:55.621Z,1.80
2022-07-25T21:04:57.258Z,1.88
2022-07-25T21:09:59.054Z,1.40
2022-07-25T21:15:01.263Z,1.80
2022-07-25T21:20:03.815Z,1.13
2022-07-25T21:25:07.012Z,1.30
2022-07-25T21:30:10.321Z,1.30
2022-07-25T21:35:12.228Z,0.82
2022-07-25T21:40:14.164Z,0.90
2022-07-25T21:45:16.063Z,0.93
2022-07-25T21:50:36.615Z,0.90
2022-07-25T21:55:45.597Z,0.80
2022-07-25T22:00:47.289Z,1.02
2022-07-25T22:05:49.072Z,1.00
2022-07-25T22:10:51.022Z,0.82
2022-07-25T22:15:53.771Z,0.90
2022-07-25T22:20:55.706Z,1.00
2022-07-25T22:25:57.342Z,1.02
2022-07-25T22:30:59.012Z,0.90
2022-07-25T22:36:01.336Z,1.05
2022-07-25T22:41:03.191Z,0.95
2022-07-25T22:46:05.020Z,1.15
2022-07-25T22:51:06.674Z,0.90
2022-07-25T22:56:08.590Z,0.93
2022-07-25T23:01:10.904Z,1.15
2022-07-25T23:06:13.073Z,0.88
2022-07-25T23:11:14.844Z,1.20
2022-07-25T23:16:16.634Z,0.75
2022-07-25T23:21:18.409Z,0.85
2022-07-25T23:26:20.092Z,1.08
2022-07-25T23:31:21.850Z,0.80
2022-07-25T23:36:23.517Z,0.70
2022-07-25T23:41:25.213Z,0.88
2022-07-25T23:46:30.838Z,0.80
2022-07-25T23:51:32.984Z,0.90
2022-07-25T23:56:34.598Z,0.68
